createdAt,value
2019-04-21T00:01:37.664Z,1.27
2019-04-21T00:04:12.467Z,4.40
2019-04-21T00:06:48.159Z,3.85
2019-04-21T00:09:19.139Z,2.17
2019-04-21T00:11:51.362Z,4.67
2019-04-21T00:14:05.666Z,1.30
2019-04-21T00:16:33.538Z,1.52
2019-04-21T00:19:02.546Z,1.57
2019-04-21T00:21:32.628Z,1.25
2019-04-21T00:24:12.555Z,4.03
2019-04-21T00:26:45.797Z,1.85
2019-04-21T00:33:51.964Z,1.45
2019-04-21T00:36:25.969Z,1.15
2019-04-21T00:39:20.689Z,1.35
2019-04-21T00:41:38.359Z,1.52
2019-04-21T00:43:59.862Z,1.67
2019-04-21T00:46:26.481Z,1.60
2019-04-21T00:48:57.427Z,1.50
2019-04-21T00:54:04.057Z,0.80
2019-04-21T00:56:27.493Z,1.82
2019-04-21T00:58:59.950Z,1.65
2019-04-21T01:01:24.957Z,1.62
2019-04-21T01:03:59.459Z,1.00
2019-04-21T01:06:24.413Z,1.35
2019-04-21T01:08:46.834Z,1.95
2019-04-21T01:11:19.536Z,1.17
2019-04-21T01:13:49.787Z,2.10
2019-04-21T01:16:18.752Z,2.58
2019-04-21T01:18:38.142Z,1.02
2019-04-21T01:20:48.613Z,1.35
2019-04-21T01:23:15.003Z,1.85
2019-04-21T01:25:50.349Z,1.12
2019-04-21T01:28:27.130Z,1.15
2019-04-21T01:30:57.279Z,1.02
2019-04-21T01:33:28.424Z,1.07
2019-04-21T01:35:53.708Z,1.20
2019-04-21T01:38:31.626Z,2.25
2019-04-21T01:40:53.086Z,1.25
2019-04-21T01:43:18.642Z,1.47
2019-04-21T01:45:48.650Z,2.22
2019-04-21T01:48:18.474Z,3.05
2019-04-21T01:50:40.959Z,1.82
2019-04-21T01:53:38.407Z,3.92
2019-04-21T01:56:18.388Z,3.00
2019-04-21T01:58:41.661Z,2.08
2019-04-21T02:01:21.560Z,2.20
2019-04-21T02:03:55.874Z,1.40
2019-04-21T02:06:22.825Z,1.50
2019-04-21T02:08:49.059Z,2.20
2019-04-21T02:11:18.907Z,1.62
2019-04-21T02:13:54.822Z,1.67
2019-04-21T02:16:12.422Z,2.15
2019-04-21T02:18:39.574Z,1.32
2019-04-21T02:20:59.274Z,2.87
2019-04-21T02:23:46.517Z,1.80
2019-04-21T02:26:11.366Z,6.00
2019-04-21T02:28:42.457Z,1.57
2019-04-21T02:31:24.450Z,1.52
2019-04-21T02:33:45.749Z,1.72
2019-04-21T02:36:22.737Z,3.42
2019-04-21T02:38:57.985Z,2.47
2019-04-21T02:41:01.437Z,2.30
2019-04-21T02:50:55.024Z,3.12
2019-04-21T02:53:31.792Z,1.92
2019-04-21T02:55:51.371Z,4.47
2019-04-21T02:58:35.185Z,1.60
2019-04-21T03:01:29.066Z,2.87
2019-04-21T03:03:54.895Z,3.47
2019-04-21T03:06:33.089Z,1.37
2019-04-21T03:09:03.312Z,2.00
2019-04-21T03:11:14.059Z,1.67
2019-04-21T03:23:46.308Z,4.92
2019-04-21T03:38:37.432Z,1.75
2019-04-21T03:45:49.696Z,1.30
2019-04-21T03:50:46.971Z,2.40
2019-04-21T03:53:18.727Z,2.05
2019-04-21T03:55:58.642Z,2.00
2019-04-21T03:58:24.504Z,1.62
2019-04-21T04:01:00.415Z,2.50
2019-04-21T04:08:46.961Z,1.65
2019-04-21T04:11:15.150Z,2.45
2019-04-21T04:13:34.193Z,1.72
2019-04-21T04:15:56.192Z,1.75
2019-04-21T04:18:28.366Z,1.35
2019-04-21T04:20:51.783Z,1.60
2019-04-21T04:23:43.329Z,1.77
2019-04-21T04:30:45.551Z,3.30
2019-04-21T04:33:22.641Z,1.50
2019-04-21T04:35:56.075Z,1.80
2019-04-21T04:38:12.908Z,2.33
2019-04-21T04:40:51.688Z,1.82
2019-04-21T04:53:12.005Z,2.60
2019-04-21T04:55:41.056Z,1.82
2019-04-21T04:58:23.413Z,2.10
2019-04-21T05:00:54.617Z,3.50
2019-04-21T05:03:06.675Z,2.83
2019-04-21T05:05:49.449Z,3.12
2019-04-21T05:08:19.718Z,3.58
2019-04-21T05:10:40.832Z,1.67
2019-04-21T05:12:53.115Z,2.42
2019-04-21T05:15:16.246Z,1.47
2019-04-21T05:22:42.830Z,1.57
2019-04-21T05:25:05.235Z,2.65
2019-04-21T05:27:38.528Z,2.67
2019-04-21T05:30:23.377Z,1.80
2019-04-21T05:32:48.803Z,1.52
2019-04-21T05:35:18.587Z,2.37
2019-04-21T05:37:50.451Z,2.58
2019-04-21T05:40:15.755Z,2.55
2019-04-21T05:42:45.886Z,4.25
2019-04-21T05:45:23.026Z,2.47
2019-04-21T05:47:57.923Z,1.67
2019-04-21T05:50:18.889Z,3.75
2019-04-21T05:52:41.780Z,3.67
2019-04-21T05:55:16.698Z,4.65
2019-04-21T05:57:46.297Z,2.50
2019-04-21T06:00:15.642Z,2.10
2019-04-21T06:02:47.203Z,3.00
2019-04-21T06:05:31.050Z,3.67
2019-04-21T06:07:34.857Z,1.98
2019-04-21T06:10:20.364Z,3.08
2019-04-21T06:12:35.832Z,3.10
2019-04-21T06:15:00.914Z,2.00
2019-04-21T06:20:01.352Z,4.60
2019-04-21T06:22:23.922Z,2.37
2019-04-21T06:25:21.645Z,2.60
2019-04-21T06:27:27.591Z,2.83
2019-04-21T06:29:57.545Z,3.22
2019-04-21T06:32:30.330Z,2.35
2019-04-21T06:35:08.313Z,4.35
2019-04-21T06:40:03.277Z,2.42
2019-04-21T06:42:16.729Z,2.40
2019-04-21T06:44:54.195Z,4.55
2019-04-21T06:47:24.673Z,3.35
2019-04-21T06:49:36.952Z,3.65
2019-04-21T06:52:20.683Z,2.02
2019-04-21T06:54:41.069Z,2.52
2019-04-21T06:57:00.686Z,2.33
2019-04-21T06:59:31.884Z,3.70
2019-04-21T07:04:31.235Z,3.45
2019-04-21T07:06:59.472Z,2.77
2019-04-21T07:09:57.147Z,2.98
2019-04-21T07:11:56.667Z,3.95
2019-04-21T07:21:54.343Z,4.53
2019-04-21T07:24:22.608Z,3.45
2019-04-21T07:26:42.646Z,3.50
2019-04-21T07:29:14.217Z,2.83
2019-04-21T07:31:47.276Z,2.47
2019-04-21T07:34:30.539Z,3.00
2019-04-21T07:36:47.210Z,3.20
2019-04-21T07:39:01.935Z,4.20
2019-04-21T07:41:24.929Z,3.05
2019-04-21T07:43:57.573Z,4.10
2019-04-21T07:46:22.373Z,3.92
2019-04-21T07:49:01.715Z,2.85
2019-04-21T07:51:53.457Z,3.72
2019-04-21T07:54:16.970Z,4.17
2019-04-21T07:56:30.259Z,4.20
2019-04-21T07:59:09.032Z,4.65
2019-04-21T08:01:36.961Z,5.42
2019-04-21T08:04:24.862Z,4.58
2019-04-21T08:06:40.862Z,6.33
2019-04-21T08:09:07.373Z,3.62
2019-04-21T08:11:28.289Z,4.05
2019-04-21T08:14:00.573Z,2.87
2019-04-21T08:16:34.939Z,3.77
2019-04-21T08:18:59.871Z,3.10
2019-04-21T08:21:28.279Z,6.15
2019-04-21T08:23:54.181Z,2.90
2019-04-21T08:26:24.739Z,3.58
2019-04-21T08:28:53.728Z,3.75
2019-04-21T08:31:24.066Z,3.37
2019-04-21T08:33:55.397Z,4.28
2019-04-21T08:46:13.461Z,6.75
2019-04-21T08:48:35.005Z,4.62
2019-04-21T08:51:23.997Z,3.47
2019-04-21T08:56:10.841Z,3.58
2019-04-21T08:58:41.373Z,5.95
2019-04-21T09:01:15.528Z,4.95
2019-04-21T09:03:56.282Z,3.98
2019-04-21T09:13:42.617Z,3.83
2019-04-21T09:23:35.133Z,3.12
2019-04-21T09:26:07.363Z,7.33
2019-04-21T09:35:41.581Z,3.52
2019-04-21T09:38:16.023Z,7.22
2019-04-21T09:48:02.751Z,4.60
2019-04-21T09:52:58.236Z,8.20
2019-04-21T10:02:54.729Z,6.08
2019-04-21T10:07:43.452Z,6.35
2019-04-21T10:12:35.248Z,5.60
2019-04-21T10:15:01.955Z,4.47
2019-04-21T10:17:30.189Z,5.30
2019-04-21T10:22:23.221Z,6.05
2019-04-21T10:24:49.741Z,8.28
2019-04-21T10:27:17.155Z,5.30
2019-04-21T10:29:45.377Z,5.10
2019-04-21T10:34:41.109Z,5.80
2019-04-21T10:37:07.565Z,5.65
2019-04-21T10:39:33.854Z,7.87
2019-04-21T10:42:01.418Z,6.17
2019-04-21T10:44:29.094Z,5.50
2019-04-21T10:46:55.990Z,7.40
2019-04-21T10:49:22.612Z,6.97
2019-04-21T10:51:49.013Z,8.15
2019-04-21T10:54:15.860Z,7.17
2019-04-21T10:56:43.994Z,8.58
2019-04-21T11:01:39.015Z,8.93
2019-04-21T11:04:20.128Z,9.08
2019-04-21T11:06:42.195Z,9.93
2019-04-21T11:09:10.795Z,7.87
2019-04-21T11:11:37.741Z,7.50
2019-04-21T11:14:04.408Z,9.68
2019-04-21T11:16:30.939Z,14.98
2019-04-21T11:18:57.970Z,8.53
2019-04-21T11:21:24.977Z,7.03
2019-04-21T11:23:52.188Z,12.15
2019-04-21T11:26:20.012Z,11.95
2019-04-21T11:28:47.220Z,10.85
2019-04-21T11:31:15.232Z,10.35
2019-04-21T11:33:43.021Z,13.83
2019-04-21T11:36:09.464Z,8.43
2019-04-21T11:38:57.085Z,9.28
2019-04-21T11:41:12.060Z,9.95
2019-04-21T11:43:39.111Z,8.35
2019-04-21T11:46:06.474Z,11.22
2019-04-21T11:48:34.431Z,12.55
2019-04-21T11:51:01.352Z,9.85
2019-04-21T11:53:28.745Z,8.73
2019-04-21T11:55:56.895Z,11.73
2019-04-21T11:58:23.785Z,11.28
2019-04-21T12:00:52.192Z,10.93
2019-04-21T12:03:20.371Z,7.95
2019-04-21T12:05:47.702Z,10.58
2019-04-21T12:08:24.518Z,7.12
2019-04-21T12:13:10.052Z,7.80
2019-04-21T12:15:36.791Z,9.70
2019-04-21T12:18:03.848Z,9.30
2019-04-21T12:20:30.621Z,9.85
2019-04-21T12:22:58.097Z,7.55
2019-04-21T12:25:27.237Z,8.83
2019-04-21T12:27:54.153Z,9.48
2019-04-21T12:30:21.765Z,8.10
2019-04-21T12:33:07.717Z,10.53
2019-04-21T12:35:35.334Z,11.38
2019-04-21T12:38:02.766Z,9.08
2019-04-21T12:40:30.659Z,11.00
2019-04-21T12:45:24.058Z,9.08
2019-04-21T12:47:51.999Z,7.20
2019-04-21T12:50:18.873Z,7.62
2019-04-21T12:52:45.337Z,8.35
2019-04-21T12:55:13.455Z,9.75
2019-04-21T13:00:08.988Z,8.55
2019-04-21T13:02:36.180Z,6.75
2019-04-21T13:05:04.997Z,6.97
2019-04-21T13:07:31.420Z,8.63
2019-04-21T13:09:58.093Z,11.00
2019-04-21T13:12:24.848Z,8.58
2019-04-21T13:14:51.647Z,8.18
2019-04-21T13:17:19.371Z,6.35
2019-04-21T13:19:45.745Z,9.40
2019-04-21T13:22:12.247Z,7.95
2019-04-21T13:24:39.681Z,7.22
2019-04-21T13:27:07.490Z,6.30
2019-04-21T13:29:34.586Z,7.87
2019-04-21T13:32:03.653Z,7.97
2019-04-21T13:36:55.075Z,6.72
2019-04-21T13:39:53.117Z,7.33
2019-04-21T13:42:05.603Z,6.72
2019-04-21T13:44:21.507Z,7.45
2019-04-21T13:46:49.142Z,9.20
2019-04-21T13:49:17.208Z,5.12
2019-04-21T13:51:43.987Z,6.67
2019-04-21T13:54:11.533Z,5.17
2019-04-21T13:56:38.565Z,6.15
2019-04-21T14:01:33.997Z,7.55
2019-04-21T14:04:01.882Z,4.97
2019-04-21T14:06:28.464Z,6.58
2019-04-21T14:08:56.916Z,5.58
2019-04-21T14:11:23.317Z,6.90
2019-04-21T14:13:50.416Z,5.10
2019-04-21T14:16:18.120Z,5.30
2019-04-21T14:18:45.556Z,5.85
2019-04-21T14:21:13.328Z,4.87
2019-04-21T14:23:44.548Z,5.35
2019-04-21T14:26:08.681Z,5.67
2019-04-21T14:28:35.085Z,3.60
2019-04-21T14:31:02.247Z,4.10
2019-04-21T14:33:29.868Z,4.65
2019-04-21T14:35:56.900Z,3.70
2019-04-21T14:38:24.808Z,6.00
2019-04-21T14:43:18.697Z,4.58
2019-04-21T14:45:46.870Z,4.90
2019-04-21T14:48:32.839Z,4.42
2019-04-21T14:51:04.217Z,4.28
2019-04-21T14:53:32.358Z,4.47
2019-04-21T14:58:25.865Z,4.47
2019-04-21T15:00:55.796Z,4.10
2019-04-21T15:03:23.519Z,9.85
2019-04-21T15:05:51.446Z,3.45
2019-04-21T15:08:17.850Z,4.97
2019-04-21T15:10:45.120Z,3.70
2019-04-21T15:13:11.914Z,6.22
2019-04-21T15:15:39.388Z,8.25
2019-04-21T15:18:05.844Z,5.50
2019-04-21T15:20:32.151Z,3.52
2019-04-21T15:22:58.357Z,5.12
2019-04-21T15:25:25.934Z,5.20
2019-04-21T15:27:52.847Z,5.00
2019-04-21T15:30:20.701Z,5.70
2019-04-21T15:32:48.460Z,4.58
2019-04-21T15:35:15.293Z,4.50
2019-04-21T15:37:42.085Z,4.70
2019-04-21T15:40:20.582Z,3.92
2019-04-21T15:42:36.748Z,6.03
2019-04-21T15:45:04.708Z,4.85
2019-04-21T15:47:31.842Z,6.55
2019-04-21T15:50:03.667Z,5.00
2019-04-21T15:54:56.889Z,7.10
2019-04-21T15:57:31.081Z,5.00
2019-04-21T16:00:00.398Z,4.78
2019-04-21T16:02:36.956Z,4.22
2019-04-21T16:05:06.629Z,5.05
2019-04-21T16:07:34.006Z,5.95
2019-04-21T16:10:01.952Z,6.20
2019-04-21T16:12:29.679Z,5.47
2019-04-21T16:14:56.574Z,6.40
2019-04-21T16:17:23.569Z,5.10
2019-04-21T16:19:50.360Z,3.77
2019-04-21T16:22:16.832Z,4.80
2019-04-21T16:24:43.967Z,6.08
2019-04-21T16:27:12.465Z,6.70
2019-04-21T16:29:39.507Z,5.70
2019-04-21T16:32:06.951Z,4.10
2019-04-21T16:34:40.154Z,4.08
2019-04-21T16:39:31.437Z,6.72
2019-04-21T16:41:58.355Z,4.15
2019-04-21T16:44:25.282Z,4.50
2019-04-21T16:46:51.782Z,7.45
2019-04-21T16:49:18.172Z,6.97
2019-04-21T16:51:46.426Z,4.08
2019-04-21T16:54:15.766Z,6.95
2019-04-21T16:56:44.036Z,3.58
2019-04-21T17:01:40.542Z,3.67
2019-04-21T17:04:08.374Z,5.10
2019-04-21T17:06:35.326Z,3.15
2019-04-21T17:09:02.909Z,5.78
2019-04-21T17:11:35.126Z,5.62
2019-04-21T17:16:50.849Z,9.60
2019-04-21T17:23:50.639Z,3.60
2019-04-21T17:26:17.203Z,3.52
2019-04-21T17:28:45.007Z,5.55
2019-04-21T17:31:12.735Z,3.30
2019-04-21T17:33:39.405Z,3.87
2019-04-21T17:36:07.071Z,4.58
2019-04-21T17:38:34.213Z,6.50
2019-04-21T17:41:14.318Z,5.58
2019-04-21T17:43:29.879Z,4.62
2019-04-21T17:45:57.476Z,2.80
2019-04-21T17:48:25.142Z,3.47
2019-04-21T17:50:53.703Z,3.25
2019-04-21T17:53:30.460Z,2.50
2019-04-21T17:56:19.418Z,7.00
2019-04-21T17:58:34.210Z,4.80
2019-04-21T18:03:46.322Z,10.85
2019-04-21T18:10:57.025Z,2.95
2019-04-21T18:18:08.482Z,3.37
2019-04-21T18:20:39.925Z,3.80
2019-04-21T18:23:18.660Z,2.10
2019-04-21T18:25:47.377Z,10.00
2019-04-21T18:28:05.022Z,4.08
2019-04-21T18:30:42.486Z,4.45
2019-04-21T18:33:15.057Z,3.62
2019-04-21T18:35:59.724Z,8.13
2019-04-21T18:38:43.157Z,6.55
2019-04-21T18:40:58.395Z,5.35
2019-04-21T18:43:57.335Z,5.10
2019-04-21T18:46:20.523Z,4.08
2019-04-21T18:48:37.030Z,6.83
2019-04-21T18:51:18.708Z,3.77
2019-04-21T18:54:02.215Z,3.65
2019-04-21T18:56:17.712Z,6.78
2019-04-21T19:01:14.872Z,2.95
2019-04-21T19:03:43.094Z,3.52
2019-04-21T19:11:19.621Z,6.62
2019-04-21T19:14:28.912Z,4.22
2019-04-21T19:16:59.049Z,5.83
2019-04-21T19:19:31.552Z,6.47
2019-04-21T19:21:28.432Z,9.15
2019-04-21T19:26:29.327Z,4.58
2019-04-21T19:29:09.813Z,3.70
2019-04-21T19:33:48.044Z,5.53
2019-04-21T19:38:41.639Z,5.78
2019-04-21T19:43:49.271Z,8.10
2019-04-21T19:46:09.731Z,5.67
2019-04-21T19:48:47.618Z,4.90
2019-04-21T19:51:11.818Z,4.08
2019-04-21T19:53:34.639Z,9.00
2019-04-21T19:55:47.810Z,4.62
2019-04-21T19:58:14.877Z,4.20
2019-04-21T20:00:42.253Z,13.10
2019-04-21T20:03:08.608Z,4.12
2019-04-21T20:05:43.063Z,8.13
2019-04-21T20:08:17.701Z,7.92
2019-04-21T20:10:48.349Z,10.48
2019-04-21T20:13:25.589Z,6.30
2019-04-21T20:15:49.087Z,4.65
2019-04-21T20:18:08.673Z,8.08
2019-04-21T20:22:54.219Z,4.35
2019-04-21T20:25:23.279Z,6.65
2019-04-21T20:30:40.788Z,6.58
2019-04-21T20:33:31.436Z,8.75
2019-04-21T20:35:40.528Z,8.38
2019-04-21T20:42:52.577Z,7.00
2019-04-21T20:45:36.543Z,4.72
2019-04-21T20:47:42.421Z,6.35
2019-04-21T20:50:19.756Z,3.98
2019-04-21T20:52:54.088Z,4.75
2019-04-21T20:55:14.262Z,4.97
2019-04-21T20:57:44.953Z,4.10
2019-04-21T21:00:19.219Z,6.30
2019-04-21T21:02:48.910Z,6.70
2019-04-21T21:05:05.097Z,4.70
2019-04-21T21:07:45.801Z,7.90
2019-04-21T21:10:10.934Z,12.98
2019-04-21T21:12:47.738Z,5.72
2019-04-21T21:15:01.229Z,8.60
2019-04-21T21:17:52.326Z,10.35
2019-04-21T21:20:07.908Z,9.50
2019-04-21T21:22:29.125Z,5.47
2019-04-21T21:24:59.999Z,5.45
2019-04-21T21:27:25.513Z,5.95
2019-04-21T21:29:56.490Z,5.55
2019-04-21T21:32:21.327Z,11.53
2019-04-21T21:34:52.291Z,7.65
2019-04-21T21:37:27.899Z,5.40
2019-04-21T21:39:53.723Z,5.22
2019-04-21T21:42:04.961Z,6.03
2019-04-21T21:44:28.721Z,6.83
2019-04-21T21:47:06.458Z,4.17
2019-04-21T21:49:39.411Z,3.85
2019-04-21T21:51:59.237Z,4.55
2019-04-21T21:54:19.946Z,7.90
2019-04-21T21:56:46.805Z,4.70
2019-04-21T21:59:20.148Z,5.22
2019-04-21T22:01:47.036Z,4.45
2019-04-21T22:04:17.046Z,5.67
2019-04-21T22:06:47.223Z,5.62
2019-04-21T22:09:12.535Z,5.67
2019-04-21T22:11:40.203Z,7.20
2019-04-21T22:14:09.946Z,5.95
2019-04-21T22:16:45.506Z,7.28
2019-04-21T22:19:20.269Z,5.08
2019-04-21T22:21:53.525Z,9.70
2019-04-21T22:26:29.360Z,5.00
2019-04-21T22:28:55.942Z,4.67
2019-04-21T22:31:27.778Z,5.80
2019-04-21T22:33:55.094Z,5.20
2019-04-21T22:36:33.021Z,6.20
2019-04-21T22:39:04.889Z,5.80
2019-04-21T22:41:26.562Z,5.10
2019-04-21T22:46:13.609Z,4.25
2019-04-21T22:48:39.194Z,3.83
2019-04-21T22:51:08.818Z,4.08
2019-04-21T22:53:35.987Z,5.05
2019-04-21T22:56:11.993Z,4.50
2019-04-21T23:01:01.915Z,6.03
2019-04-21T23:05:55.776Z,6.90
2019-04-21T23:08:26.654Z,4.58
2019-04-21T23:10:57.893Z,5.08
2019-04-21T23:13:23.383Z,4.90
2019-04-21T23:18:30.574Z,7.72
2019-04-21T23:20:58.788Z,8.90
2019-04-21T23:25:53.350Z,4.67
2019-04-21T23:28:20.927Z,5.12
2019-04-21T23:30:54.709Z,5.90
2019-04-21T23:33:08.145Z,5.55
2019-04-21T23:38:05.003Z,9.15
2019-04-21T23:40:29.652Z,4.10
2019-04-21T23:43:00.146Z,6.30
2019-04-21T23:48:08.026Z,6.03
2019-04-21T23:50:33.245Z,4.95
2019-04-21T23:52:49.684Z,5.37
2019-04-21T23:55:17.040Z,5.78
2019-04-21T23:57:48.052Z,4.10
